Time;durP1;ratioP1;P1;durP2;ratioP2;P2;SDS_P1;SDS_P2;PMS_P1;PMS_P2;Temp;Humidity;BMP_temperature;BMP_pressure;BME280_temperature;BME280_humidity;BME280_pressure;Samples;Min_cycle;Max_cycle;Signal;HPM_P1;HPM_P2
2022/06/05 00:02:56;;;;;;;13.15;5.88;;;;;;;;;;10365663;28;20034;-45
2022/06/05 00:08:19;;;;;;;10.23;5.65;;;;;;;;;;10364534;28;20172;-44
2022/06/05 00:13:46;;;;;;;9.85;5.45;;;;;;;;;;10362777;28;20385;-44
2022/06/05 00:18:47;;;;;;;10.70;5.53;;;;;;;;;;10365851;28;20109;-44
2022/06/05 00:23:50;;;;;;;11.00;5.97;;;;;;;;;;10367807;28;20474;-46
2022/06/05 00:29:15;;;;;;;12.60;5.97;;;;;;;;;;10359270;28;20378;-44
2022/06/05 00:34:16;;;;;;;11.93;6.13;;;;;;;;;;10366748;28;20037;-43
2022/06/05 00:39:24;;;;;;;8.82;6.32;;;;;;;;;;10365841;28;20038;-44
2022/06/05 00:44:49;;;;;;;10.00;5.60;;;;;;;;;;10381557;28;20507;-43
2022/06/05 00:50:10;;;;;;;9.77;5.93;;;;;;;;;;10380798;28;20045;-43
2022/06/05 00:55:12;;;;;;;7.68;5.95;;;;;;;;;;10371212;28;20586;-44
2022/06/05 01:00:19;;;;;;;9.07;5.80;;;;;;;;;;10356227;28;20105;-43
2022/06/05 01:05:23;;;;;;;11.87;6.37;;;;;;;;;;10365418;28;20389;-43
2022/06/05 01:10:49;;;;;;;9.75;6.32;;;;;;;;;;10372433;28;20381;-43
2022/06/05 01:16:17;;;;;;;8.25;5.43;;;;;;;;;;10362646;28;20386;-44
2022/06/05 01:21:44;;;;;;;8.65;5.65;;;;;;;;;;10385484;28;20474;-44
2022/06/05 01:27:16;;;;;;;8.63;6.35;;;;;;;;;;10386097;28;20074;-47
2022/06/05 01:32:35;;;;;;;8.63;6.00;;;;;;;;;;10392544;28;20065;-44
2022/06/05 01:37:48;;;;;;;7.10;5.50;;;;;;;;;;10371763;28;20114;-43
2022/06/05 01:42:57;;;;;;;10.05;5.70;;;;;;;;;;10372235;28;20026;-43
2022/06/05 01:48:00;;;;;;;8.32;6.53;;;;;;;;;;10370723;28;20034;-43
2022/06/05 01:53:31;;;;;;;10.27;6.25;;;;;;;;;;10377540;28;20089;-43
2022/06/05 01:58:44;;;;;;;8.80;6.55;;;;;;;;;;10367022;28;20038;-43
2022/06/05 02:03:53;;;;;;;12.77;7.47;;;;;;;;;;10369735;28;20030;-43
2022/06/05 02:09:00;;;;;;;9.73;6.63;;;;;;;;;;10356254;28;20396;-43
2022/06/05 02:14:06;;;;;;;7.57;6.78;;;;;;;;;;10374618;28;20038;-43
2022/06/05 02:19:19;;;;;;;11.05;7.43;;;;;;;;;;10365772;28;20454;-43
2022/06/05 02:24:20;;;;;;;13.13;7.15;;;;;;;;;;10365787;28;20402;-43
2022/06/05 02:29:24;;;;;;;11.73;7.30;;;;;;;;;;10372338;28;20025;-43
2022/06/05 02:34:45;;;;;;;10.18;7.30;;;;;;;;;;10370120;28;20018;-43
2022/06/05 02:40:20;;;;;;;13.43;7.38;;;;;;;;;;10369453;28;20473;-44
2022/06/05 02:45:39;;;;;;;9.85;7.28;;;;;;;;;;10377117;28;20029;-44
2022/06/05 02:50:50;;;;;;;10.75;7.43;;;;;;;;;;10367703;28;20446;-44
2022/06/05 02:55:51;;;;;;;9.15;6.78;;;;;;;;;;10368980;28;20022;-44
2022/06/05 03:06:10;;;;;;;9.40;7.30;;;;;;;;;;10358823;28;20054;-43
2022/06/05 03:11:12;;;;;;;11.57;7.53;;;;;;;;;;10369331;28;20108;-43
2022/06/05 03:16:13;;;;;;;10.82;7.70;;;;;;;;;;10368518;28;20034;-43
2022/06/05 03:21:13;;;;;;;9.52;7.75;;;;;;;;;;10364902;28;20072;-44
2022/06/05 03:26:14;;;;;;;10.60;7.35;;;;;;;;;;10369185;28;20077;-43
2022/06/05 03:31:15;;;;;;;9.80;7.15;;;;;;;;;;10383489;28;20038;-44
2022/06/05 03:36:17;;;;;;;12.63;6.85;;;;;;;;;;10363291;28;20021;-44
2022/06/05 03:41:19;;;;;;;11.95;7.55;;;;;;;;;;10363923;28;20079;-44
2022/06/05 03:46:19;;;;;;;11.25;7.88;;;;;;;;;;10362903;28;20034;-44
2022/06/05 03:51:22;;;;;;;10.70;8.40;;;;;;;;;;10375452;28;20053;-44
2022/06/05 03:56:25;;;;;;;15.77;9.30;;;;;;;;;;10363659;28;20037;-44
2022/06/05 04:01:27;;;;;;;11.82;8.52;;;;;;;;;;10371126;28;20117;-44
2022/06/05 04:06:30;;;;;;;12.20;8.10;;;;;;;;;;10367745;28;20040;-45
2022/06/05 04:11:33;;;;;;;10.88;8.07;;;;;;;;;;10375613;28;20505;-44
2022/06/05 04:16:38;;;;;;;15.43;7.00;;;;;;;;;;10375633;28;20029;-44
2022/06/05 04:21:44;;;;;;;10.75;7.30;;;;;;;;;;10356271;28;20466;-45
2022/06/05 04:26:44;;;;;;;13.05;7.22;;;;;;;;;;10366879;28;20053;-43
2022/06/05 04:31:48;;;;;;;13.05;6.57;;;;;;;;;;10367259;28;20462;-43
2022/06/05 04:36:49;;;;;;;10.35;7.38;;;;;;;;;;10376586;28;20128;-44
2022/06/05 04:41:50;;;;;;;7.05;6.32;;;;;;;;;;10370944;28;20038;-43
2022/06/05 04:46:53;;;;;;;8.05;6.25;;;;;;;;;;10385873;28;20402;-44
2022/06/05 04:51:53;;;;;;;13.30;7.22;;;;;;;;;;10375287;28;20172;-45
2022/06/05 04:56:54;;;;;;;7.53;6.40;;;;;;;;;;10363832;28;20052;-44
2022/06/05 05:01:55;;;;;;;8.98;6.38;;;;;;;;;;10371178;28;20470;-44
2022/06/05 05:06:55;;;;;;;9.60;6.35;;;;;;;;;;10360547;28;20474;-45
2022/06/05 05:11:56;;;;;;;11.13;6.43;;;;;;;;;;10370612;28;20410;-43
2022/06/05 05:16:56;;;;;;;11.38;8.57;;;;;;;;;;10377053;28;20103;-43
2022/06/05 05:21:58;;;;;;;15.75;10.82;;;;;;;;;;10364202;28;20033;-44
2022/06/05 05:26:58;;;;;;;17.15;12.90;;;;;;;;;;10369006;28;20049;-43
2022/06/05 05:31:59;;;;;;;21.13;13.10;;;;;;;;;;10372258;28;20029;-44
2022/06/05 05:36:59;;;;;;;22.52;12.80;;;;;;;;;;10380633;28;20038;-44
2022/06/05 05:42:06;;;;;;;32.60;14.13;;;;;;;;;;10377429;28;20026;-43
2022/06/05 05:47:26;;;;;;;27.20;15.43;;;;;;;;;;10383953;28;20049;-43
2022/06/05 05:52:28;;;;;;;24.90;15.00;;;;;;;;;;10372146;28;20026;-43
2022/06/05 05:57:29;;;;;;;36.50;16.35;;;;;;;;;;10372161;28;20044;-43
2022/06/05 06:02:30;;;;;;;22.75;15.25;;;;;;;;;;10372924;28;20033;-43
2022/06/05 06:07:30;;;;;;;23.52;15.20;;;;;;;;;;10370689;28;20053;-44
2022/06/05 06:12:31;;;;;;;22.27;15.10;;;;;;;;;;10372071;28;20059;-43
2022/06/05 06:17:32;;;;;;;25.60;14.88;;;;;;;;;;10382688;28;20255;-43
2022/06/05 06:22:35;;;;;;;26.02;14.07;;;;;;;;;;10377893;28;20026;-43
2022/06/05 06:27:36;;;;;;;22.73;13.63;;;;;;;;;;10371779;28;20116;-44
2022/06/05 06:32:36;;;;;;;27.52;15.10;;;;;;;;;;10369855;28;20461;-44
2022/06/05 06:37:37;;;;;;;24.42;13.55;;;;;;;;;;10374772;28;20396;-43
2022/06/05 06:42:38;;;;;;;16.70;11.77;;;;;;;;;;10370817;28;20083;-43
2022/06/05 06:47:39;;;;;;;16.98;10.73;;;;;;;;;;10375815;28;20022;-43
2022/06/05 06:52:39;;;;;;;12.52;10.05;;;;;;;;;;10370830;28;20025;-44
2022/06/05 06:57:40;;;;;;;14.63;10.00;;;;;;;;;;10377337;28;20040;-43
2022/06/05 07:02:41;;;;;;;17.27;9.68;;;;;;;;;;10370342;28;20037;-44
2022/06/05 07:07:41;;;;;;;15.88;10.27;;;;;;;;;;10373379;28;20087;-43
2022/06/05 07:12:42;;;;;;;15.15;9.40;;;;;;;;;;10393913;28;20596;-44
2022/06/05 07:17:43;;;;;;;16.55;9.23;;;;;;;;;;10393319;28;20021;-44
2022/06/05 07:22:43;;;;;;;19.60;9.45;;;;;;;;;;10380369;28;20052;-46
2022/06/05 07:27:44;;;;;;;13.70;8.38;;;;;;;;;;10386302;28;20034;-45
2022/06/05 07:32:47;;;;;;;14.02;8.45;;;;;;;;;;10369239;28;20377;-46
2022/06/05 07:37:47;;;;;;;12.70;8.43;;;;;;;;;;10370120;28;20034;-47
2022/06/05 07:42:48;;;;;;;11.00;7.00;;;;;;;;;;10371159;28;20037;-45
2022/06/05 07:47:48;;;;;;;11.15;8.40;;;;;;;;;;10368902;28;20026;-46
2022/06/05 07:58:08;;;;;;;10.00;7.15;;;;;;;;;;10368505;28;20033;-44
2022/06/05 08:03:09;;;;;;;17.23;6.75;;;;;;;;;;10373732;28;20462;-44
2022/06/05 08:08:09;;;;;;;13.27;7.00;;;;;;;;;;10367841;28;20496;-47
2022/06/05 08:13:10;;;;;;;13.38;7.05;;;;;;;;;;10370095;28;20458;-44
2022/06/05 08:18:11;;;;;;;14.55;7.28;;;;;;;;;;10359906;28;20040;-45
2022/06/05 08:23:12;;;;;;;10.35;6.70;;;;;;;;;;10374597;28;20041;-44
2022/06/05 08:28:14;;;;;;;9.93;6.68;;;;;;;;;;10368877;28;20053;-44
2022/06/05 08:33:15;;;;;;;11.70;6.53;;;;;;;;;;10378645;28;20038;-44
2022/06/05 08:44:04;;;;;;;11.57;6.43;;;;;;;;;;10379708;28;20034;-46
2022/06/05 08:49:11;;;;;;;9.00;6.28;;;;;;;;;;10354798;28;20362;-45
2022/06/05 08:54:24;;;;;;;11.38;6.53;;;;;;;;;;10369800;28;20489;-46
2022/06/05 08:59:30;;;;;;;11.80;6.72;;;;;;;;;;10367068;28;20056;-45
2022/06/05 09:04:45;;;;;;;10.95;6.07;;;;;;;;;;10370088;28;20040;-47
2022/06/05 09:10:15;;;;;;;11.50;6.30;;;;;;;;;;10365516;28;20026;-44
2022/06/05 09:15:37;;;;;;;14.00;6.70;;;;;;;;;;10375342;28;20125;-45
2022/06/05 09:20:40;;;;;;;8.45;6.00;;;;;;;;;;10373120;28;20061;-46
2022/06/05 09:26:02;;;;;;;14.50;6.07;;;;;;;;;;10377333;28;20066;-44
2022/06/05 09:31:34;;;;;;;13.65;6.63;;;;;;;;;;10373110;28;20129;-44
2022/06/05 09:36:36;;;;;;;10.10;5.80;;;;;;;;;;10386173;28;20401;-47
2022/06/05 09:42:29;;;;;;;11.82;6.45;;;;;;;;;;10382318;28;20025;-43
2022/06/05 09:47:57;;;;;;;10.00;6.80;;;;;;;;;;10365996;28;20120;-44
2022/06/05 09:52:58;;;;;;;9.70;6.97;;;;;;;;;;10385321;28;20030;-44
2022/06/05 10:03:42;;;;;;;10.82;7.30;;;;;;;;;;10372595;28;20037;-43
2022/06/05 10:09:12;;;;;;;12.02;7.03;;;;;;;;;;10377193;28;20501;-44
2022/06/05 10:14:30;;;;;;;12.50;6.22;;;;;;;;;;10370978;28;20033;-43
2022/06/05 10:19:59;;;;;;;10.35;7.00;;;;;;;;;;10383197;28;20406;-43
2022/06/05 10:25:34;;;;;;;11.20;7.00;;;;;;;;;;10375600;28;20103;-44
2022/06/05 10:30:58;;;;;;;9.18;6.68;;;;;;;;;;10373158;28;20116;-43
2022/06/05 10:36:22;;;;;;;13.15;6.85;;;;;;;;;;10398999;28;20060;-45
2022/06/05 10:41:46;;;;;;;12.05;6.70;;;;;;;;;;10386134;28;20481;-43
2022/06/05 10:47:01;;;;;;;9.48;6.60;;;;;;;;;;10370781;28;20030;-43
2022/06/05 10:52:25;;;;;;;11.73;6.45;;;;;;;;;;10371041;28;20442;-43
2022/06/05 10:57:39;;;;;;;13.00;6.47;;;;;;;;;;10373067;28;20025;-44
2022/06/05 11:03:20;;;;;;;10.07;5.95;;;;;;;;;;10369115;28;20073;-44
2022/06/05 11:09:08;;;;;;;9.07;6.55;;;;;;;;;;10373760;28;20046;-45
2022/06/05 11:14:32;;;;;;;12.63;7.07;;;;;;;;;;10377936;28;20549;-45
2022/06/05 11:19:44;;;;;;;9.68;6.72;;;;;;;;;;10368837;28;20026;-43
2022/06/05 11:25:10;;;;;;;8.90;6.38;;;;;;;;;;10379971;28;20269;-44
2022/06/05 11:30:20;;;;;;;11.07;6.47;;;;;;;;;;10368447;28;20477;-44
2022/06/05 11:35:34;;;;;;;9.15;6.55;;;;;;;;;;10381172;28;20057;-44
2022/06/05 11:40:57;;;;;;;12.25;6.85;;;;;;;;;;10368925;28;20426;-43
2022/06/05 11:46:04;;;;;;;10.00;6.30;;;;;;;;;;10368489;28;20096;-44
2022/06/05 11:51:30;;;;;;;10.05;6.50;;;;;;;;;;10367836;28;20026;-44
2022/06/05 11:56:56;;;;;;;8.48;6.80;;;;;;;;;;10371098;28;20033;-44
2022/06/05 12:02:08;;;;;;;14.48;6.43;;;;;;;;;;10357196;28;20191;-43
2022/06/05 12:07:14;;;;;;;11.30;6.55;;;;;;;;;;10368058;28;20068;-44
2022/06/05 12:12:40;;;;;;;10.40;6.78;;;;;;;;;;10375001;28;20445;-44
2022/06/05 12:17:55;;;;;;;13.95;6.22;;;;;;;;;;10354852;28;20033;-47
2022/06/05 12:23:10;;;;;;;13.48;5.90;;;;;;;;;;10379598;28;20401;-45
2022/06/05 12:28:15;;;;;;;8.95;6.20;;;;;;;;;;10366233;28;20037;-47
2022/06/05 12:33:48;;;;;;;7.40;5.55;;;;;;;;;;10374000;28;20030;-45
2022/06/05 12:39:02;;;;;;;11.27;6.15;;;;;;;;;;10366210;28;20030;-45
2022/06/05 12:44:27;;;;;;;10.02;6.53;;;;;;;;;;10375087;28;20396;-44
2022/06/05 12:49:44;;;;;;;12.02;6.15;;;;;;;;;;10367941;28;20085;-45
2022/06/05 12:55:30;;;;;;;13.23;6.72;;;;;;;;;;10378389;28;20235;-44
2022/06/05 13:00:40;;;;;;;11.48;6.30;;;;;;;;;;10384478;28;20104;-44
2022/06/05 13:06:02;;;;;;;8.13;5.80;;;;;;;;;;10384612;28;20031;-44
2022/06/05 13:11:16;;;;;;;9.05;5.60;;;;;;;;;;10373384;28;20121;-44
2022/06/05 13:16:56;;;;;;;6.85;5.35;;;;;;;;;;10382803;28;20030;-44
2022/06/05 13:22:13;;;;;;;9.55;5.90;;;;;;;;;;10373302;28;20046;-44
2022/06/05 13:27:51;;;;;;;10.20;5.53;;;;;;;;;;10382449;28;20060;-43
2022/06/05 13:33:22;;;;;;;6.68;5.55;;;;;;;;;;10372369;28;20037;-44
2022/06/05 13:39:11;;;;;;;12.45;5.57;;;;;;;;;;10377241;28;20042;-44
2022/06/05 13:44:24;;;;;;;10.95;5.63;;;;;;;;;;10417932;28;20026;-42
2022/06/05 13:49:48;;;;;;;10.40;5.72;;;;;;;;;;10376514;28;20048;-43
2022/06/05 13:55:23;;;;;;;14.43;6.18;;;;;;;;;;10371442;28;20033;-45
2022/06/05 14:00:36;;;;;;;9.40;5.40;;;;;;;;;;10380938;28;20156;-44
2022/06/05 14:05:45;;;;;;;16.65;5.50;;;;;;;;;;10373213;28;20044;-43
2022/06/05 14:11:00;;;;;;;8.50;5.88;;;;;;;;;;10382177;28;20473;-43
2022/06/05 14:16:02;;;;;;;14.30;5.68;;;;;;;;;;10371758;28;20117;-43
2022/06/05 14:21:03;;;;;;;8.32;5.43;;;;;;;;;;10371384;28;20582;-43
2022/06/05 14:26:04;;;;;;;10.30;5.10;;;;;;;;;;10370009;28;20597;-43
2022/06/05 14:31:18;;;;;;;11.60;5.47;;;;;;;;;;10374304;28;20279;-43
2022/06/05 14:36:33;;;;;;;8.52;4.97;;;;;;;;;;10371774;28;20096;-44
2022/06/05 14:41:38;;;;;;;8.32;4.72;;;;;;;;;;10374657;28;20052;-43
2022/06/05 14:46:57;;;;;;;9.52;5.20;;;;;;;;;;10365720;28;20364;-43
2022/06/05 14:52:12;;;;;;;6.95;5.20;;;;;;;;;;10379072;28;20065;-45
2022/06/05 15:02:49;;;;;;;6.88;4.78;;;;;;;;;;10367329;28;20033;-43
2022/06/05 15:08:03;;;;;;;10.25;5.05;;;;;;;;;;10370323;28;20042;-41
2022/06/05 15:13:33;;;;;;;10.95;4.75;;;;;;;;;;10378007;28;20025;-43
2022/06/05 15:18:35;;;;;;;7.82;4.30;;;;;;;;;;10365107;28;20029;-44
2022/06/05 15:23:45;;;;;;;7.63;4.60;;;;;;;;;;10369459;28;20125;-43
2022/06/05 15:29:14;;;;;;;6.55;4.05;;;;;;;;;;10368034;28;20033;-43
2022/06/05 15:34:30;;;;;;;7.38;4.38;;;;;;;;;;10369236;28;20038;-42
2022/06/05 15:39:47;;;;;;;7.47;4.22;;;;;;;;;;10369348;28;20018;-46
2022/06/05 15:45:12;;;;;;;5.80;4.07;;;;;;;;;;10376123;28;20049;-44
2022/06/05 15:51:03;;;;;;;6.65;4.22;;;;;;;;;;10364801;28;20037;-45
2022/06/05 15:56:22;;;;;;;10.48;4.68;;;;;;;;;;10366037;28;20052;-44
2022/06/05 16:01:33;;;;;;;18.15;4.50;;;;;;;;;;10365670;28;20041;-44
2022/06/05 16:07:17;;;;;;;10.05;4.85;;;;;;;;;;10354056;28;20045;-43
2022/06/05 16:12:30;;;;;;;13.95;5.25;;;;;;;;;;10357719;28;20030;-43
2022/06/05 16:18:07;;;;;;;11.10;4.60;;;;;;;;;;10367203;28;20248;-43
2022/06/05 16:23:26;;;;;;;10.07;5.20;;;;;;;;;;10376888;28;20038;-43
2022/06/05 16:28:55;;;;;;;6.15;4.18;;;;;;;;;;10372565;28;20030;-47
2022/06/05 16:34:01;;;;;;;15.75;4.57;;;;;;;;;;10365826;28;20291;-42
2022/06/05 16:39:02;;;;;;;18.05;4.85;;;;;;;;;;10370650;28;20049;-42
2022/06/05 16:44:04;;;;;;;13.85;4.50;;;;;;;;;;10375990;28;20115;-42
2022/06/05 16:49:20;;;;;;;15.18;4.68;;;;;;;;;;10398646;28;20045;-42
2022/06/05 16:54:33;;;;;;;21.40;4.05;;;;;;;;;;10368728;28;20476;-46
2022/06/05 16:59:37;;;;;;;16.10;4.60;;;;;;;;;;10367954;28;20037;-42
2022/06/05 17:05:03;;;;;;;18.98;4.40;;;;;;;;;;10373534;28;20094;-41
2022/06/05 17:10:30;;;;;;;11.90;4.35;;;;;;;;;;10364024;28;20212;-42
2022/06/05 17:16:01;;;;;;;9.30;4.20;;;;;;;;;;10357968;28;20367;-42
2022/06/05 17:21:10;;;;;;;14.85;4.18;;;;;;;;;;10354935;28;20037;-42
2022/06/05 17:27:31;;;;;;;10.25;4.00;;;;;;;;;;10362112;28;20493;-42
2022/06/05 17:32:53;;;;;;;11.77;4.10;;;;;;;;;;10366182;28;20042;-42
2022/06/05 17:38:45;;;;;;;9.45;3.90;;;;;;;;;;10358276;28;20101;-41
2022/06/05 17:44:13;;;;;;;6.72;4.15;;;;;;;;;;10386401;28;20091;-41
2022/06/05 17:49:38;;;;;;;12.50;4.47;;;;;;;;;;10364126;28;20172;-42
2022/06/05 17:55:13;;;;;;;6.68;4.00;;;;;;;;;;10372890;28;20041;-41
2022/06/05 18:00:20;;;;;;;18.13;4.05;;;;;;;;;;10375357;28;20034;-42
2022/06/05 18:05:38;;;;;;;10.98;3.72;;;;;;;;;;10370449;28;20033;-42
2022/06/05 18:10:55;;;;;;;25.67;4.50;;;;;;;;;;10366134;28;20420;-42
2022/06/05 18:16:02;;;;;;;11.93;4.70;;;;;;;;;;10361226;28;20522;-43
2022/06/05 18:21:03;;;;;;;10.48;4.00;;;;;;;;;;10353763;28;20628;-42
2022/06/05 18:26:17;;;;;;;15.07;4.43;;;;;;;;;;10379454;28;20050;-43
2022/06/05 18:31:34;;;;;;;22.38;4.93;;;;;;;;;;10372170;28;20022;-43
2022/06/05 18:41:54;;;;;;;11.05;3.80;;;;;;;;;;10371736;28;20113;-42
2022/06/05 18:46:57;;;;;;;8.98;4.30;;;;;;;;;;10375309;28;20041;-42
2022/06/05 18:52:09;;;;;;;12.35;4.32;;;;;;;;;;10371312;28;20030;-42
2022/06/05 18:57:33;;;;;;;9.15;3.28;;;;;;;;;;10375451;28;20030;-42
2022/06/05 19:02:49;;;;;;;8.60;3.67;;;;;;;;;;10370744;28;20572;-42
2022/06/05 19:07:50;;;;;;;9.25;3.75;;;;;;;;;;10376246;28;20034;-42
2022/06/05 19:13:01;;;;;;;11.77;3.75;;;;;;;;;;10370638;28;20033;-42
2022/06/05 19:18:13;;;;;;;8.73;3.60;;;;;;;;;;10377353;28;20500;-42
2022/06/05 19:23:43;;;;;;;9.10;3.95;;;;;;;;;;10369761;28;20077;-42
2022/06/05 19:28:52;;;;;;;12.52;3.63;;;;;;;;;;10392185;28;20026;-42
2022/06/05 19:34:21;;;;;;;5.28;3.35;;;;;;;;;;10369676;28;20382;-42
2022/06/05 19:39:34;;;;;;;10.93;3.95;;;;;;;;;;10369394;28;20029;-42
2022/06/05 19:44:36;;;;;;;4.82;3.38;;;;;;;;;;10379671;28;20149;-42
2022/06/05 19:49:45;;;;;;;9.98;3.58;;;;;;;;;;10369185;28;20030;-42
2022/06/05 19:54:47;;;;;;;10.30;3.70;;;;;;;;;;10368274;28;20034;-42
2022/06/05 20:00:13;;;;;;;8.45;3.35;;;;;;;;;;10358368;28;20045;-42
2022/06/05 20:05:30;;;;;;;5.93;3.50;;;;;;;;;;10368696;28;20056;-42
2022/06/05 20:10:44;;;;;;;10.90;3.40;;;;;;;;;;10359454;28;20022;-42
2022/06/05 20:15:45;;;;;;;6.88;3.53;;;;;;;;;;10361004;28;20037;-42
2022/06/05 20:20:55;;;;;;;6.38;2.53;;;;;;;;;;10358024;28;20032;-42
2022/06/05 20:26:26;;;;;;;9.57;3.55;;;;;;;;;;10374260;28;20062;-42
2022/06/05 20:31:49;;;;;;;8.02;3.00;;;;;;;;;;10366971;28;20388;-42
2022/06/05 20:37:18;;;;;;;5.55;3.03;;;;;;;;;;10375533;28;20030;-42
2022/06/05 20:42:27;;;;;;;11.30;3.30;;;;;;;;;;10366962;28;20052;-42
2022/06/05 20:47:54;;;;;;;7.22;2.78;;;;;;;;;;10373882;28;20087;-42
2022/06/05 20:53:03;;;;;;;6.70;3.20;;;;;;;;;;10352736;28;20611;-40
2022/06/05 20:58:28;;;;;;;8.68;3.10;;;;;;;;;;10342828;28;20125;-41
2022/06/05 21:10:03;;;;;;;10.80;3.10;;;;;;;;;;10350304;28;20542;-43
2022/06/05 21:20:33;;;;;;;6.22;2.63;;;;;;;;;;10356566;28;20042;-41
2022/06/05 21:25:47;;;;;;;4.22;2.90;;;;;;;;;;10367891;28;20053;-42
2022/06/05 21:30:55;;;;;;;16.88;3.13;;;;;;;;;;10366027;28;20033;-42
2022/06/05 21:36:05;;;;;;;16.52;3.67;;;;;;;;;;10360762;28;20042;-42
2022/06/05 21:41:38;;;;;;;8.55;3.00;;;;;;;;;;10362585;28;20052;-42
2022/06/05 21:46:41;;;;;;;7.90;3.20;;;;;;;;;;10372995;28;20069;-42
2022/06/05 21:51:44;;;;;;;3.75;2.63;;;;;;;;;;10361403;28;20105;-41
2022/06/05 21:56:49;;;;;;;10.05;2.65;;;;;;;;;;10372144;28;20588;-42
2022/06/05 22:01:49;;;;;;;6.97;2.80;;;;;;;;;;10371659;28;20064;-42
2022/06/05 22:06:50;;;;;;;5.63;2.90;;;;;;;;;;10370826;28;20049;-41
2022/06/05 22:11:50;;;;;;;4.75;2.80;;;;;;;;;;10374068;28;20034;-42
2022/06/05 22:16:57;;;;;;;5.22;3.00;;;;;;;;;;10370565;28;20034;-42
2022/06/05 22:22:14;;;;;;;4.53;2.28;;;;;;;;;;10370886;28;20033;-45
2022/06/05 22:27:21;;;;;;;8.23;3.10;;;;;;;;;;10368323;28;20049;-42
2022/06/05 22:32:22;;;;;;;9.60;2.60;;;;;;;;;;10375521;28;20455;-42
2022/06/05 22:37:23;;;;;;;8.93;3.20;;;;;;;;;;10368209;28;20436;-42
2022/06/05 22:42:24;;;;;;;6.68;2.85;;;;;;;;;;10369911;28;20389;-42
2022/06/05 22:47:25;;;;;;;9.38;2.63;;;;;;;;;;10366512;28;20038;-42
2022/06/05 22:52:26;;;;;;;8.60;2.97;;;;;;;;;;10365796;28;20474;-42
2022/06/05 22:57:27;;;;;;;12.40;2.75;;;;;;;;;;10352799;28;20041;-41
2022/06/05 23:02:29;;;;;;;5.20;2.47;;;;;;;;;;10362110;28;20023;-41
2022/06/05 23:07:29;;;;;;;4.68;2.33;;;;;;;;;;10344179;28;20541;-41
2022/06/05 23:12:30;;;;;;;6.13;2.45;;;;;;;;;;10346432;28;20038;-41
2022/06/05 23:17:31;;;;;;;3.67;2.60;;;;;;;;;;10346120;28;20359;-42
2022/06/05 23:22:32;;;;;;;6.10;2.53;;;;;;;;;;10380230;28;20037;-42
2022/06/05 23:27:33;;;;;;;4.43;2.03;;;;;;;;;;10366376;28;20519;-42
2022/06/05 23:32:34;;;;;;;12.15;2.60;;;;;;;;;;10372226;28;20105;-42
2022/06/05 23:37:34;;;;;;;5.95;2.10;;;;;;;;;;10364931;28;20033;-41
2022/06/05 23:42:35;;;;;;;5.00;2.10;;;;;;;;;;10369722;28;20041;-42
2022/06/05 23:47:36;;;;;;;4.90;2.13;;;;;;;;;;10367054;28;20041;-41
2022/06/05 23:52:36;;;;;;;3.67;2.30;;;;;;;;;;10389210;28;20036;-41
2022/06/05 23:57:42;;;;;;;4.50;2.05;;;;;;;;;;10367554;28;20310;-42
